Time;durP1;ratioP1;P1;durP2;ratioP2;P2;SDS_P1;SDS_P2;PMS_P1;PMS_P2;Temp;Humidity;BMP_temperature;BMP_pressure;BME280_temperature;BME280_humidity;BME280_pressure;Samples;Min_cycle;Max_cycle;Signal;HPM_P1;HPM_P2
2021/09/21 00:00:47;;;;;;;0.30;0.30;;;;;;;19.11;58.51;102696.81;5093223;28;20473;-67
2021/09/21 00:03:12;;;;;;;0.45;0.30;;;;;;;19.12;59.05;102698.53;5094159;28;20034;-66
2021/09/21 00:05:38;;;;;;;0.70;0.32;;;;;;;19.11;57.98;102705.00;5095224;28;20111;-67
2021/09/21 00:08:04;;;;;;;0.30;0.20;;;;;;;19.07;59.50;102698.09;5092892;28;20417;-67
2021/09/21 00:10:30;;;;;;;0.47;0.38;;;;;;;19.03;59.92;102696.63;5093286;28;20047;-66
2021/09/21 00:12:55;;;;;;;0.38;0.38;;;;;;;19.10;59.50;102703.25;5092961;28;20052;-67
2021/09/21 00:15:22;;;;;;;1.00;0.40;;;;;;;19.05;59.45;102689.19;5093284;28;20107;-67
2021/09/21 00:17:49;;;;;;;0.30;0.30;;;;;;;19.03;58.92;102691.16;5097963;28;20035;-67
2021/09/21 00:20:16;;;;;;;0.40;0.30;;;;;;;19.04;59.90;102687.44;5096623;28;20448;-66
2021/09/21 00:22:42;;;;;;;0.52;0.30;;;;;;;19.06;59.00;102683.59;5079369;28;20035;-67
2021/09/21 00:25:09;;;;;;;0.22;0.17;;;;;;;19.01;59.32;102687.72;5078681;28;20028;-67
2021/09/21 00:27:35;;;;;;;0.30;0.30;;;;;;;18.99;59.13;102685.13;5076911;28;20120;-66
2021/09/21 00:30:00;;;;;;;0.85;0.45;;;;;;;19.01;59.78;102682.25;5077266;28;20100;-67
2021/09/21 00:32:26;;;;;;;0.65;0.38;;;;;;;19.06;58.84;102672.69;5076993;28;20446;-67
2021/09/21 00:34:53;;;;;;;0.73;0.60;;;;;;;18.98;58.36;102677.06;5076323;28;20053;-67
2021/09/21 00:37:19;;;;;;;0.47;0.40;;;;;;;18.99;59.31;102671.50;5076764;28;20491;-67
2021/09/21 00:39:46;;;;;;;1.35;0.25;;;;;;;19.01;59.00;102674.94;5090771;28;20024;-67
2021/09/21 00:42:13;;;;;;;0.50;0.50;;;;;;;18.96;59.43;102669.00;5096900;28;20386;-67
2021/09/21 00:44:39;;;;;;;0.57;0.30;;;;;;;18.93;59.22;102664.69;5097137;28;20094;-67
2021/09/21 00:47:06;;;;;;;0.95;0.30;;;;;;;18.99;59.65;102663.31;5096593;28;20527;-67
2021/09/21 00:49:33;;;;;;;0.40;0.30;;;;;;;18.96;60.68;102651.78;5078680;28;20020;-67
2021/09/21 00:51:59;;;;;;;0.47;0.30;;;;;;;18.97;60.59;102662.56;5096679;28;20463;-67
2021/09/21 00:54:26;;;;;;;0.60;0.35;;;;;;;18.97;59.43;102648.94;5096535;28;20024;-67
2021/09/21 00:56:53;;;;;;;0.40;0.40;;;;;;;18.99;58.90;102662.44;5096359;28;20032;-67
2021/09/21 00:59:19;;;;;;;0.80;0.60;;;;;;;18.98;58.94;102655.25;5096563;28;20565;-67
2021/09/21 01:01:44;;;;;;;1.20;0.50;;;;;;;18.91;59.66;102650.34;5108522;28;20024;-66
2021/09/21 01:04:09;;;;;;;0.50;0.30;;;;;;;18.92;60.56;102646.59;5082488;28;20031;-67
2021/09/21 01:06:35;;;;;;;0.32;0.22;;;;;;;18.98;59.83;102639.78;5096957;28;20027;-67
2021/09/21 01:09:00;;;;;;;0.73;0.30;;;;;;;18.97;59.83;102642.59;5096003;28;20097;-67
2021/09/21 01:11:25;;;;;;;1.08;0.40;;;;;;;18.93;60.26;102637.44;5096633;28;20051;-67
2021/09/21 01:13:51;;;;;;;2.15;0.40;;;;;;;18.97;59.85;102637.16;5096182;28;20028;-66
2021/09/21 01:16:19;;;;;;;0.65;0.40;;;;;;;18.98;59.35;102636.16;5096338;28;20030;-67
2021/09/21 01:18:44;;;;;;;0.70;0.50;;;;;;;18.91;59.87;102627.66;5096084;28;20394;-67
2021/09/21 01:21:12;;;;;;;1.40;0.30;;;;;;;18.92;59.83;102619.34;5096134;28;20020;-67
2021/09/21 01:23:48;;;;;;;1.15;0.40;;;;;;;18.97;59.78;102623.53;5095917;28;20537;-67
2021/09/21 01:26:14;;;;;;;0.30;0.30;;;;;;;18.97;58.41;102616.22;5104759;28;20050;-66
2021/09/21 01:28:40;;;;;;;0.60;0.40;;;;;;;18.98;58.60;102612.53;5096270;28;20074;-66
2021/09/21 01:31:05;;;;;;;0.60;0.47;;;;;;;18.96;58.40;102609.03;5094806;28;20480;-67
2021/09/21 01:33:30;;;;;;;0.28;0.28;;;;;;;18.94;60.46;102601.00;5100072;28;20044;-67
2021/09/21 01:35:56;;;;;;;0.52;0.50;;;;;;;18.94;59.54;102584.66;5095561;28;20024;-67
2021/09/21 01:38:21;;;;;;;0.30;0.30;;;;;;;18.87;59.22;102594.38;5095973;28;20061;-67
2021/09/21 01:40:46;;;;;;;0.88;0.43;;;;;;;18.86;59.11;102592.63;5095762;28;20048;-67
2021/09/21 01:43:12;;;;;;;0.60;0.40;;;;;;;18.91;58.34;102606.72;5077553;28;20485;-67
2021/09/21 01:45:37;;;;;;;0.50;0.45;;;;;;;18.92;59.13;102603.00;5095641;28;20031;-66
2021/09/21 01:48:02;;;;;;;0.20;0.13;;;;;;;18.92;58.37;102607.59;5094590;28;20040;-67
2021/09/21 01:50:33;;;;;;;0.85;0.50;;;;;;;18.87;60.62;102610.72;5095739;28;20020;-67
2021/09/21 01:53:15;;;;;;;1.13;0.40;;;;;;;18.89;57.98;102608.72;5099130;28;20364;-67
2021/09/21 02:00:42;;;;;;;0.43;0.40;;;;;;;18.85;57.78;102596.38;5095100;28;20050;-67
2021/09/21 02:03:16;;;;;;;0.30;0.30;;;;;;;18.88;59.26;102607.00;5095359;28;20520;-67
2021/09/21 02:05:41;;;;;;;0.55;0.30;;;;;;;18.87;58.73;102602.53;5084382;28;20044;-66
2021/09/21 02:08:07;;;;;;;0.70;0.40;;;;;;;18.93;58.46;102610.19;5075156;28;20060;-67
2021/09/21 02:10:32;;;;;;;0.52;0.30;;;;;;;18.88;59.12;102598.81;5075178;28;20084;-67
2021/09/21 02:12:57;;;;;;;0.20;0.20;;;;;;;18.86;58.80;102600.81;5074757;28;20479;-67
2021/09/21 02:15:23;;;;;;;0.30;0.20;;;;;;;18.89;59.37;102599.69;5074942;28;20036;-67
2021/09/21 02:17:49;;;;;;;1.35;0.50;;;;;;;18.86;59.34;102598.09;5083699;28;20399;-67
2021/09/21 02:20:14;;;;;;;0.40;0.30;;;;;;;18.87;59.32;102599.81;5094983;28;20463;-67
2021/09/21 02:22:40;;;;;;;0.60;0.30;;;;;;;18.88;59.11;102595.22;5094796;28;20024;-67
2021/09/21 02:25:06;;;;;;;0.82;0.80;;;;;;;18.87;58.95;102594.38;5094568;28;20106;-67
2021/09/21 02:27:32;;;;;;;0.30;0.30;;;;;;;18.91;58.78;102601.28;5094875;28;20066;-67
2021/09/21 02:29:58;;;;;;;0.60;0.40;;;;;;;18.91;58.67;102601.28;5094782;28;20021;-67
2021/09/21 02:32:52;;;;;;;0.32;0.30;;;;;;;18.85;59.11;102596.38;5105227;28;20051;-67
2021/09/21 02:35:18;;;;;;;0.50;0.28;;;;;;;18.85;59.81;102601.81;4992366;28;20172;-67
2021/09/21 02:37:45;;;;;;;0.43;0.20;;;;;;;18.90;60.05;102596.81;4993370;28;20043;-67
2021/09/21 02:40:11;;;;;;;0.28;0.20;;;;;;;18.86;57.88;102597.22;4992643;28;20411;-67
2021/09/21 02:42:46;;;;;;;0.60;0.20;;;;;;;18.83;60.22;102589.31;4996100;28;20577;-67
2021/09/21 02:45:12;;;;;;;0.32;0.32;;;;;;;18.77;59.61;102598.88;4992712;28;20022;-67
2021/09/21 02:47:38;;;;;;;0.77;0.40;;;;;;;18.78;59.09;102581.53;4992507;28;20545;-67
2021/09/21 02:50:05;;;;;;;0.32;0.30;;;;;;;18.82;57.85;102580.28;4976338;28;20418;-67
2021/09/21 02:52:31;;;;;;;1.42;0.30;;;;;;;18.81;59.14;102581.28;4992552;28;20050;-67
2021/09/21 02:54:56;;;;;;;0.35;0.20;;;;;;;18.83;59.11;102576.56;4976389;28;20037;-67
2021/09/21 02:57:22;;;;;;;0.80;0.30;;;;;;;18.87;57.96;102566.25;4992468;28;20034;-67
2021/09/21 02:59:47;;;;;;;0.17;0.15;;;;;;;18.83;59.71;102562.94;4992802;28;20038;-67
2021/09/21 03:02:12;;;;;;;0.45;0.45;;;;;;;18.82;58.53;102561.22;4996189;28;20040;-65
2021/09/21 03:04:42;;;;;;;0.45;0.30;;;;;;;18.87;57.87;102552.63;4996333;28;20022;-67
2021/09/21 03:07:11;;;;;;;0.73;0.22;;;;;;;18.84;58.19;102551.03;4992623;28;20065;-67
2021/09/21 03:17:26;;;;;;;0.90;0.28;;;;;;;18.79;59.64;102517.84;5094149;28;20039;-67
2021/09/21 03:19:52;;;;;;;1.50;0.30;;;;;;;18.83;58.74;102516.59;5093741;28;20024;-67
2021/09/21 03:22:29;;;;;;;0.20;0.20;;;;;;;18.79;58.79;102508.81;5096637;28;20115;-64
2021/09/21 03:24:55;;;;;;;0.52;0.30;;;;;;;18.78;58.90;102497.03;5077576;28;20024;-67
2021/09/21 03:27:22;;;;;;;0.43;0.35;;;;;;;18.74;59.77;102500.19;5073645;28;20604;-67
2021/09/21 03:29:47;;;;;;;0.80;0.35;;;;;;;18.77;59.04;102498.03;5073484;28;20074;-67
2021/09/21 03:32:14;;;;;;;0.47;0.20;;;;;;;18.78;58.50;102505.22;5073412;28;20063;-67
2021/09/21 03:34:39;;;;;;;0.10;0.10;;;;;;;18.75;59.39;102497.31;5078101;28;20037;-67
2021/09/21 03:37:10;;;;;;;0.45;0.10;;;;;;;18.76;60.48;102503.63;5073284;28;20021;-67
2021/09/21 03:39:36;;;;;;;0.20;0.20;;;;;;;18.75;59.32;102497.31;5073180;28;20036;-67
2021/09/21 03:42:03;;;;;;;0.50;0.20;;;;;;;18.78;61.04;102488.88;5073331;28;20055;-67
2021/09/21 03:44:29;;;;;;;0.47;0.10;;;;;;;18.77;58.80;102487.16;5081569;28;20099;-67
2021/09/21 03:46:55;;;;;;;0.10;0.05;;;;;;;18.79;59.81;102487.00;5073098;28;20104;-67
2021/09/21 03:49:21;;;;;;;0.30;0.30;;;;;;;18.80;59.65;102489.59;5073293;28;20044;-67
2021/09/21 03:51:47;;;;;;;0.85;0.40;;;;;;;18.75;59.68;102494.59;5073574;28;20028;-67
2021/09/21 03:54:12;;;;;;;0.30;0.25;;;;;;;18.77;59.60;102495.31;5072867;28;20082;-67
2021/09/21 03:56:38;;;;;;;0.30;0.10;;;;;;;18.75;60.22;102502.78;5073340;28;20028;-67
2021/09/21 03:59:04;;;;;;;0.25;0.10;;;;;;;18.78;59.73;102507.94;5072785;28;20029;-67
2021/09/21 04:01:30;;;;;;;0.10;0.10;;;;;;;18.76;59.44;102509.94;5055449;28;20028;-67
2021/09/21 04:03:55;;;;;;;0.20;0.10;;;;;;;19.03;57.86;102501.22;5073035;28;20024;-67
2021/09/21 04:06:21;;;;;;;0.25;0.10;;;;;;;19.20;58.11;102507.91;5073344;28;20072;-67
2021/09/21 04:08:46;;;;;;;0.38;0.20;;;;;;;19.34;57.64;102504.78;5083137;28;20031;-67
2021/09/21 04:11:11;;;;;;;0.40;0.25;;;;;;;19.36;57.80;102505.53;5072993;28;20371;-67
2021/09/21 04:13:37;;;;;;;0.30;0.10;;;;;;;19.41;58.83;102505.09;5073059;28;20035;-67
2021/09/21 04:16:02;;;;;;;0.82;0.30;;;;;;;19.50;58.30;102496.94;5072939;28;20048;-67
2021/09/21 04:18:28;;;;;;;0.20;0.10;;;;;;;19.57;58.18;102504.59;5073145;28;20035;-67
2021/09/21 04:20:54;;;;;;;0.82;0.38;;;;;;;19.64;58.18;102501.16;5073218;28;20070;-67
2021/09/21 04:23:19;;;;;;;0.05;0.05;;;;;;;19.67;58.52;102500.03;5075538;28;20023;-67
2021/09/21 04:25:44;;;;;;;0.30;0.20;;;;;;;19.70;58.41;102494.31;5093438;28;20111;-67
2021/09/21 04:28:10;;;;;;;0.80;0.38;;;;;;;19.77;58.56;102490.00;5093012;28;20421;-67
2021/09/21 04:30:36;;;;;;;0.10;0.10;;;;;;;19.79;59.00;102493.44;5093004;28;20085;-67
2021/09/21 04:33:01;;;;;;;0.52;0.40;;;;;;;19.80;59.44;102495.16;5094200;28;20059;-64
2021/09/21 04:35:26;;;;;;;0.40;0.30;;;;;;;19.83;58.94;102497.63;5095432;28;20052;-67
2021/09/21 04:37:52;;;;;;;0.47;0.20;;;;;;;19.81;59.28;102485.97;5092921;28;20046;-67
2021/09/21 04:40:29;;;;;;;0.40;0.22;;;;;;;19.80;59.84;102493.28;5095356;28;20486;-67
2021/09/21 04:42:54;;;;;;;0.60;0.32;;;;;;;19.87;59.39;102485.44;5093493;28;20020;-67
2021/09/21 04:45:19;;;;;;;0.15;0.10;;;;;;;19.83;60.55;102478.53;5092645;28;20042;-67
2021/09/21 04:47:45;;;;;;;1.85;0.22;;;;;;;19.90;61.24;102484.28;5093220;28;20028;-67
2021/09/21 04:50:10;;;;;;;0.70;0.20;;;;;;;19.86;59.88;102478.25;5092856;28;20017;-67
2021/09/21 04:52:35;;;;;;;0.68;0.40;;;;;;;19.85;61.72;102471.06;5092763;28;20525;-67
2021/09/21 04:55:01;;;;;;;0.10;0.10;;;;;;;19.92;59.81;102472.19;5093438;28;20388;-65
2021/09/21 04:57:26;;;;;;;0.38;0.10;;;;;;;19.92;60.59;102477.66;5078635;28;20027;-67
2021/09/21 04:59:52;;;;;;;0.57;0.10;;;;;;;19.87;60.17;102481.84;5092679;28;20447;-67
2021/09/21 05:02:17;;;;;;;0.25;0.17;;;;;;;19.88;59.82;102476.22;5092845;28;20538;-67
2021/09/21 05:04:42;;;;;;;0.65;0.10;;;;;;;19.87;61.26;102468.19;5092712;28;20020;-67
2021/09/21 05:07:08;;;;;;;0.75;0.15;;;;;;;19.96;61.12;102459.97;5095954;28;20020;-67
2021/09/21 05:09:33;;;;;;;0.20;0.20;;;;;;;19.88;59.83;102457.13;5096336;28;20026;-67
2021/09/21 05:11:58;;;;;;;0.20;0.20;;;;;;;19.86;60.82;102456.41;5096358;28;20077;-67
2021/09/21 05:14:24;;;;;;;0.20;0.20;;;;;;;19.91;61.60;102458.69;5096242;28;20028;-67
2021/09/21 05:17:04;;;;;;;0.40;0.17;;;;;;;19.92;60.78;102455.81;5082334;28;20405;-65
2021/09/21 05:19:30;;;;;;;0.20;0.20;;;;;;;19.95;60.32;102460.13;5076082;28;20386;-67
2021/09/21 05:21:55;;;;;;;0.10;0.10;;;;;;;19.92;60.73;102453.09;5075852;28;20020;-67
2021/09/21 05:24:20;;;;;;;0.10;0.10;;;;;;;19.98;59.52;102444.31;5087114;28;20379;-67
2021/09/21 05:26:46;;;;;;;0.32;0.10;;;;;;;19.97;60.80;102445.31;5096334;28;20031;-66
2021/09/21 05:29:11;;;;;;;0.38;0.20;;;;;;;19.98;61.24;102444.31;5096127;28;20016;-67
2021/09/21 05:31:36;;;;;;;0.63;0.43;;;;;;;19.98;59.63;102448.91;5095965;28;20115;-66
2021/09/21 05:34:02;;;;;;;0.20;0.20;;;;;;;20.02;59.99;102439.47;5095816;28;20040;-67
2021/09/21 05:36:27;;;;;;;0.10;0.00;;;;;;;19.98;59.97;102433.41;5078091;28;20031;-67
2021/09/21 05:38:53;;;;;;;0.20;0.10;;;;;;;20.03;59.67;102436.59;5095469;28;20031;-67
2021/09/21 05:41:24;;;;;;;0.70;0.15;;;;;;;20.04;61.20;102438.31;5098299;28;20024;-66
2021/09/21 05:43:50;;;;;;;0.20;0.10;;;;;;;20.06;60.38;102436.28;5095814;28;20016;-67
2021/09/21 05:46:15;;;;;;;0.30;0.20;;;;;;;20.09;59.99;102441.44;5095840;28;20547;-67
2021/09/21 05:48:40;;;;;;;0.52;0.10;;;;;;;20.11;60.38;102436.69;5104071;28;20036;-67
2021/09/21 05:51:06;;;;;;;1.52;0.10;;;;;;;20.11;60.96;102431.25;5095890;28;20087;-67
2021/09/21 05:53:31;;;;;;;0.20;0.08;;;;;;;20.09;59.41;102430.53;5095724;28;20039;-67
2021/09/21 05:55:57;;;;;;;0.35;0.20;;;;;;;20.04;60.95;102430.09;5095334;28;20035;-67
2021/09/21 05:58:22;;;;;;;0.30;0.17;;;;;;;20.04;59.87;102432.84;5096022;28;20546;-67
2021/09/21 06:00:48;;;;;;;1.60;0.20;;;;;;;20.01;61.27;102433.13;5095396;28;20026;-67
2021/09/21 06:03:14;;;;;;;0.13;0.10;;;;;;;20.03;60.61;102430.25;5095607;28;20034;-67
2021/09/21 06:05:39;;;;;;;0.55;0.17;;;;;;;20.07;63.53;102427.09;5095054;28;20032;-67
2021/09/21 06:08:04;;;;;;;0.00;0.00;;;;;;;20.13;60.55;102436.56;5098294;28;20050;-67
2021/09/21 06:10:31;;;;;;;0.50;0.30;;;;;;;20.14;61.31;102430.94;5094178;28;20085;-67
2021/09/21 06:12:56;;;;;;;0.30;0.10;;;;;;;20.09;62.29;102441.44;5094244;28;20024;-67
2021/09/21 06:15:22;;;;;;;0.30;0.13;;;;;;;20.07;61.47;102432.53;5095057;28;20031;-67
2021/09/21 06:17:49;;;;;;;0.82;0.17;;;;;;;20.11;61.17;102431.25;5087115;28;20025;-67
2021/09/21 06:20:15;;;;;;;0.20;0.10;;;;;;;20.17;60.04;102426.22;5089147;28;20024;-67
2021/09/21 06:22:43;;;;;;;0.68;0.30;;;;;;;20.08;61.63;102428.81;5092881;28;20048;-67
2021/09/21 06:25:10;;;;;;;0.30;0.10;;;;;;;20.11;60.98;102428.50;5085214;28;20046;-67
2021/09/21 06:27:35;;;;;;;0.63;0.20;;;;;;;20.23;60.23;102414.72;5092527;28;20059;-67
2021/09/21 06:30:03;;;;;;;0.65;0.10;;;;;;;20.18;60.06;102422.50;5092258;28;20020;-67
2021/09/21 06:32:28;;;;;;;0.65;0.20;;;;;;;20.14;61.23;102424.63;5067456;28;20071;-67
2021/09/21 06:34:54;;;;;;;0.28;0.10;;;;;;;20.09;60.74;102426.94;5078189;28;20495;-67
2021/09/21 06:37:19;;;;;;;1.33;0.10;;;;;;;20.18;60.46;102427.94;5082190;28;20027;-67
2021/09/21 06:39:44;;;;;;;0.30;0.20;;;;;;;20.23;60.49;102425.63;5094075;28;20032;-67
2021/09/21 06:42:10;;;;;;;0.40;0.20;;;;;;;20.23;61.37;102418.31;5094166;28;20024;-67
2021/09/21 06:44:35;;;;;;;0.25;0.15;;;;;;;20.23;60.22;102420.19;5088946;28;20383;-66
2021/09/21 06:47:00;;;;;;;0.20;0.10;;;;;;;20.37;60.75;102427.91;5077633;28;20024;-67
2021/09/21 06:49:26;;;;;;;0.30;0.30;;;;;;;20.33;59.32;102429.22;5074391;28;20610;-67
2021/09/21 06:51:51;;;;;;;0.32;0.20;;;;;;;20.33;61.28;102426.50;5075272;28;20115;-66
2021/09/21 06:54:17;;;;;;;0.28;0.00;;;;;;;20.33;61.08;102421.03;5085026;28;20525;-66
2021/09/21 06:56:42;;;;;;;0.77;0.20;;;;;;;20.35;61.43;102427.22;5086223;28;20539;-66
2021/09/21 06:59:07;;;;;;;0.20;0.10;;;;;;;20.41;60.24;102419.31;5086781;28;20473;-67
2021/09/21 07:01:33;;;;;;;0.38;0.17;;;;;;;20.39;60.01;102409.50;5079720;28;20039;-67
2021/09/21 07:03:58;;;;;;;0.57;0.17;;;;;;;20.31;62.30;102412.09;5086054;28;20015;-67
2021/09/21 07:06:23;;;;;;;0.20;0.17;;;;;;;20.17;61.96;102405.25;5089298;28;20413;-66
2021/09/21 07:08:49;;;;;;;0.20;0.17;;;;;;;20.08;61.70;102406.97;5082157;28;20032;-67
2021/09/21 07:11:14;;;;;;;0.17;0.13;;;;;;;20.10;60.14;102402.22;5084815;28;20021;-66
2021/09/21 07:13:40;;;;;;;0.38;0.10;;;;;;;20.03;64.47;102403.81;5078924;28;20020;-67
2021/09/21 07:16:07;;;;;;;0.22;0.10;;;;;;;20.12;60.46;102405.66;5076645;28;20047;-66
2021/09/21 07:18:32;;;;;;;0.40;0.10;;;;;;;20.20;60.53;102409.56;5088691;28;20036;-67
2021/09/21 07:20:57;;;;;;;0.20;0.20;;;;;;;20.31;62.01;102412.09;5095312;28;20064;-66
2021/09/21 07:23:23;;;;;;;0.40;0.20;;;;;;;20.33;61.03;102415.56;5118584;28;20012;-66
2021/09/21 07:25:48;;;;;;;0.40;0.20;;;;;;;20.37;61.22;102400.59;5093204;28;20023;-65
2021/09/21 07:28:13;;;;;;;0.85;0.10;;;;;;;20.35;61.97;102408.94;5092934;28;20545;-66
2021/09/21 07:30:39;;;;;;;0.20;0.15;;;;;;;20.38;60.09;102413.25;5089343;28;20030;-66
2021/09/21 07:33:06;;;;;;;0.47;0.08;;;;;;;20.36;60.55;102409.81;5078266;28;20398;-66
2021/09/21 07:35:31;;;;;;;0.38;0.10;;;;;;;20.34;61.67;102407.22;5090663;28;20494;-67
2021/09/21 07:37:57;;;;;;;0.30;0.10;;;;;;;20.37;60.62;102401.47;5091414;28;20111;-64
2021/09/21 07:40:22;;;;;;;0.15;0.10;;;;;;;20.32;61.79;102402.88;5097605;28;20055;-66
2021/09/21 07:42:48;;;;;;;0.30;0.20;;;;;;;20.32;59.76;102402.88;5088888;28;20024;-66
2021/09/21 07:45:15;;;;;;;0.30;0.00;;;;;;;20.37;59.37;102406.06;5091960;28;20068;-66
2021/09/21 07:47:40;;;;;;;0.93;0.17;;;;;;;20.37;60.16;102401.47;5071529;28;20036;-67
2021/09/21 07:50:08;;;;;;;0.52;0.15;;;;;;;20.30;62.76;102410.38;5084574;28;20379;-66
2021/09/21 07:52:33;;;;;;;1.88;0.10;;;;;;;20.30;60.53;102410.38;5080330;28;20467;-67
2021/09/21 07:54:59;;;;;;;0.20;0.10;;;;;;;20.28;60.56;102402.31;5089455;28;20032;-66
2021/09/21 07:57:25;;;;;;;0.95;0.10;;;;;;;20.36;59.64;102405.19;5079973;28;20103;-67
2021/09/21 08:00:43;;;;;;;0.13;0.03;;;;;;;20.30;59.97;102413.09;5059267;28;20068;-66
2021/09/21 08:03:08;;;;;;;0.30;0.20;;;;;;;20.29;59.60;102409.50;4982770;28;20381;-67
2021/09/21 08:05:35;;;;;;;1.00;0.22;;;;;;;20.20;60.95;102404.94;4990114;28;20034;-66
2021/09/21 08:08:01;;;;;;;0.17;0.17;;;;;;;20.14;61.99;102406.38;4985772;28;20128;-67
2021/09/21 08:10:26;;;;;;;0.45;0.17;;;;;;;20.21;62.26;102400.34;4982953;28;20458;-66
2021/09/21 08:12:51;;;;;;;0.47;0.25;;;;;;;20.30;62.68;102405.78;4990868;28;20046;-67
2021/09/21 08:15:18;;;;;;;0.22;0.10;;;;;;;20.40;61.25;102408.50;4991316;28;20435;-67
2021/09/21 08:17:43;;;;;;;0.90;0.00;;;;;;;20.26;60.74;102403.50;4991012;28;20043;-66
2021/09/21 08:20:10;;;;;;;0.20;0.10;;;;;;;20.25;61.73;102408.09;4990605;28;20045;-67
2021/09/21 08:22:36;;;;;;;0.45;0.30;;;;;;;20.30;61.13;102404.91;4995360;28;20402;-66
2021/09/21 08:25:04;;;;;;;0.63;0.20;;;;;;;20.31;60.86;102410.22;4974212;28;20042;-67
2021/09/21 08:27:29;;;;;;;0.45;0.20;;;;;;;20.32;61.05;102408.34;4971976;28;20154;-67
2021/09/21 08:29:54;;;;;;;0.43;0.20;;;;;;;20.25;61.71;102412.69;4974886;28;20114;-66
2021/09/21 08:32:20;;;;;;;1.08;0.20;;;;;;;20.35;60.73;102419.00;4975098;28;20092;-67
2021/09/21 08:34:46;;;;;;;0.43;0.22;;;;;;;20.38;60.33;102421.44;4991024;28;20043;-67
2021/09/21 08:37:11;;;;;;;0.10;0.05;;;;;;;20.29;61.87;102414.97;4991379;28;20080;-67
2021/09/21 08:39:37;;;;;;;0.80;0.30;;;;;;;20.20;62.68;102409.56;5072570;28;20311;-66
2021/09/21 08:42:03;;;;;;;0.30;0.20;;;;;;;20.18;61.77;102406.09;5078923;28;20016;-66
2021/09/21 08:44:29;;;;;;;1.58;0.22;;;;;;;20.11;61.66;102406.66;5096633;28;20663;-66
2021/09/21 08:46:56;;;;;;;0.65;0.28;;;;;;;20.19;62.55;102396.91;5101353;28;20020;-67
2021/09/21 08:49:22;;;;;;;0.65;0.22;;;;;;;20.22;61.09;102396.59;5096682;28;20516;-66
2021/09/21 08:51:47;;;;;;;0.52;0.32;;;;;;;20.20;61.50;102398.63;5096756;28;20094;-67
2021/09/21 08:54:13;;;;;;;0.98;0.30;;;;;;;20.20;61.47;102395.91;5090293;28;20035;-66
2021/09/21 08:56:40;;;;;;;0.38;0.20;;;;;;;20.14;60.87;102389.13;5094913;28;20055;-67
2021/09/21 08:59:10;;;;;;;0.38;0.15;;;;;;;20.17;60.81;102393.47;5096752;28;20031;-66
2021/09/21 09:01:45;;;;;;;0.60;0.20;;;;;;;20.18;61.51;102384.25;5078175;28;20457;-67
2021/09/21 09:04:30;;;;;;;0.28;0.20;;;;;;;20.10;62.35;102391.28;5105688;28;20641;-66
2021/09/21 09:06:57;;;;;;;0.43;0.20;;;;;;;20.18;62.00;102387.00;5091774;28;20081;-66
2021/09/21 09:09:25;;;;;;;0.40;0.22;;;;;;;20.18;61.07;102385.13;5086586;28;20028;-66
2021/09/21 09:11:56;;;;;;;0.20;0.20;;;;;;;20.19;63.43;102383.25;5094409;28;20020;-66
2021/09/21 09:14:27;;;;;;;0.22;0.20;;;;;;;20.28;61.88;102385.09;5095828;28;20432;-67
2021/09/21 09:16:54;;;;;;;0.22;0.10;;;;;;;20.23;61.70;102384.66;5096364;28;20042;-66
2021/09/21 09:19:20;;;;;;;0.38;0.10;;;;;;;20.28;62.26;102388.69;5096121;28;20081;-66
2021/09/21 09:21:46;;;;;;;1.30;0.32;;;;;;;20.19;62.08;102385.97;5090771;28;20425;-66
2021/09/21 09:24:13;;;;;;;0.68;0.10;;;;;;;20.24;62.23;102381.78;5085823;28;20046;-66
2021/09/21 09:26:41;;;;;;;0.20;0.20;;;;;;;20.31;61.67;102390.25;5092794;28;20042;-66
2021/09/21 09:29:08;;;;;;;0.13;0.13;;;;;;;20.25;62.31;102385.38;5092189;28;20379;-65
2021/09/21 09:31:35;;;;;;;1.27;0.32;;;;;;;20.28;61.85;102382.34;5097795;28;20547;-66
2021/09/21 09:34:12;;;;;;;0.20;0.10;;;;;;;20.29;60.23;102376.75;5088072;28;20072;-66
2021/09/21 09:36:58;;;;;;;0.38;0.10;;;;;;;20.31;62.25;102379.31;5067963;28;20495;-66
2021/09/21 09:39:26;;;;;;;0.75;0.52;;;;;;;20.37;61.30;102378.75;5092820;28;20036;-67
2021/09/21 09:41:54;;;;;;;0.10;0.00;;;;;;;20.43;60.44;102384.50;5095172;28;20028;-65
2021/09/21 09:44:26;;;;;;;0.40;0.10;;;;;;;20.43;60.03;102383.66;5095955;28;20371;-66
2021/09/21 09:47:05;;;;;;;2.42;0.03;;;;;;;20.38;59.37;102380.47;5092401;28;20020;-66
2021/09/21 09:49:40;;;;;;;0.45;0.10;;;;;;;20.35;59.39;102370.72;5083467;28;20036;-64
2021/09/21 09:52:07;;;;;;;0.38;0.17;;;;;;;20.30;58.94;102372.13;5085551;28;20020;-67
2021/09/21 09:54:33;;;;;;;0.75;0.10;;;;;;;20.21;60.01;102371.16;5093006;28;20024;-66
2021/09/21 09:56:59;;;;;;;0.15;0.00;;;;;;;20.19;59.18;102355.94;5094790;28;20119;-67
2021/09/21 09:59:27;;;;;;;0.20;0.20;;;;;;;20.13;58.79;102363.69;5098650;28;20052;-66
2021/09/21 10:01:53;;;;;;;0.35;0.25;;;;;;;20.22;57.52;102358.38;5095189;28;20050;-66
2021/09/21 10:04:18;;;;;;;0.40;0.10;;;;;;;20.21;58.29;102356.66;5095296;28;20024;-66
2021/09/21 10:06:44;;;;;;;0.15;0.00;;;;;;;20.18;57.61;102355.09;5095281;28;20023;-67
2021/09/21 10:09:10;;;;;;;0.10;0.03;;;;;;;20.14;58.91;102356.34;5074775;28;20474;-66
2021/09/21 10:11:36;;;;;;;0.30;0.10;;;;;;;20.09;58.55;102354.06;5075077;28;20571;-66
2021/09/21 10:14:11;;;;;;;0.32;0.30;;;;;;;20.09;59.24;102348.63;5078784;28;20096;-65
2021/09/21 10:16:45;;;;;;;0.17;0.10;;;;;;;20.08;58.37;102349.63;5077296;28;20028;-66
2021/09/21 10:19:18;;;;;;;0.35;0.10;;;;;;;20.08;58.76;102348.75;5074890;28;20024;-66
2021/09/21 10:21:46;;;;;;;0.30;0.10;;;;;;;20.12;58.05;102353.78;5074843;28;20017;-66
2021/09/21 10:24:11;;;;;;;0.10;0.10;;;;;;;20.13;60.08;102344.56;5074881;28;20027;-66
2021/09/21 10:26:45;;;;;;;0.40;0.20;;;;;;;20.07;58.50;102345.19;5074543;28;20028;-66
2021/09/21 10:29:13;;;;;;;0.38;0.20;;;;;;;20.05;58.82;102347.19;5074759;28;20028;-66
2021/09/21 10:31:40;;;;;;;0.82;0.40;;;;;;;20.10;58.77;102339.41;5076203;28;20025;-67
2021/09/21 10:34:16;;;;;;;0.15;0.15;;;;;;;20.02;58.45;102339.31;5074236;28;20070;-67
2021/09/21 10:36:50;;;;;;;1.13;0.25;;;;;;;20.09;58.74;102343.16;5079462;28;20024;-66
2021/09/21 10:39:16;;;;;;;;;;;;;;;20.12;58.02;102339.25;5074901;28;20020;-66
2021/09/21 10:41:58;;;;;;;1.08;0.30;;;;;;;20.02;58.77;102342.03;5074641;28;19915;-67
2021/09/21 10:44:25;;;;;;;0.00;0.00;;;;;;;20.10;57.63;102330.38;5074348;28;20051;-67
2021/09/21 10:46:59;;;;;;;0.95;0.17;;;;;;;20.04;58.91;102330.97;5074520;28;20024;-66
2021/09/21 10:49:43;;;;;;;0.60;0.20;;;;;;;20.06;58.59;102321.63;5074278;28;20046;-66
2021/09/21 10:52:15;;;;;;;0.35;0.10;;;;;;;20.02;58.45;102325.66;5074271;28;20071;-66
2021/09/21 10:54:52;;;;;;;0.13;0.10;;;;;;;20.06;58.32;102321.63;5073973;28;20021;-66
2021/09/21 10:57:33;;;;;;;0.10;0.10;;;;;;;20.06;58.42;102316.16;5078555;28;20427;-66
2021/09/21 11:00:00;;;;;;;0.52;0.20;;;;;;;20.08;58.66;102318.72;5081538;28;20399;-67
2021/09/21 11:02:46;;;;;;;0.30;0.20;;;;;;;20.05;58.56;102314.44;5073703;28;20025;-66
2021/09/21 11:05:17;;;;;;;0.13;0.10;;;;;;;20.01;58.39;102315.75;5073709;28;20054;-67
2021/09/21 11:07:52;;;;;;;0.95;0.20;;;;;;;20.05;57.95;102330.81;5086840;28;20035;-67
2021/09/21 11:10:18;;;;;;;0.03;0.00;;;;;;;20.01;58.87;102337.59;5066888;28;20048;-67
2021/09/21 11:12:48;;;;;;;0.10;0.10;;;;;;;20.03;59.63;102332.84;5094211;28;20032;-65
2021/09/21 11:15:15;;;;;;;0.70;0.17;;;;;;;20.07;59.11;102326.06;5094217;28;20040;-67
2021/09/21 11:17:40;;;;;;;1.27;0.20;;;;;;;20.04;58.29;102333.69;5093120;28;20039;-65
2021/09/21 11:20:07;;;;;;;0.43;0.10;;;;;;;20.06;58.21;102321.63;5089225;28;20036;-65
2021/09/21 11:22:32;;;;;;;0.15;0.08;;;;;;;19.96;60.30;102326.22;5057751;28;20382;-66
2021/09/21 11:25:00;;;;;;;0.20;0.10;;;;;;;19.99;58.94;102325.94;5082132;28;20498;-65
2021/09/21 11:27:27;;;;;;;0.20;0.10;;;;;;;20.02;58.07;102322.94;5083028;28;20028;-66
2021/09/21 11:30:04;;;;;;;0.60;0.20;;;;;;;20.01;57.83;102323.94;5075551;28;20089;-65
2021/09/21 11:32:29;;;;;;;0.10;0.00;;;;;;;20.02;59.20;102320.19;5085346;28;20024;-66
2021/09/21 11:35:04;;;;;;;1.48;0.40;;;;;;;20.02;58.71;102320.19;5087941;28;20052;-66
2021/09/21 11:37:31;;;;;;;0.10;0.03;;;;;;;19.96;58.51;102319.91;5093843;28;20141;-66